createdAt,value
2022-08-30T00:02:04.254Z,101778.70
2022-08-30T00:04:32.025Z,101791.35
2022-08-30T00:07:00.763Z,101796.62
2022-08-30T00:09:28.412Z,101796.62
2022-08-30T00:11:56.085Z,101800.57
2022-08-30T00:14:23.790Z,101802.14
2022-08-30T00:16:52.072Z,101804.23
2022-08-30T00:19:19.754Z,101794.52
2022-08-30T00:21:47.419Z,101787.13
2022-08-30T00:24:15.131Z,101794.79
2022-08-30T00:26:42.792Z,101791.05
2022-08-30T00:29:10.482Z,101793.18
2022-08-30T00:31:38.186Z,101799.49
2022-08-30T00:34:06.219Z,101799.00
2022-08-30T00:36:34.064Z,101795.27
2022-08-30T00:39:01.777Z,101798.19
2022-08-30T00:41:29.974Z,101793.45
2022-08-30T00:43:58.236Z,101791.05
2022-08-30T00:46:28.778Z,101793.97
2022-08-30T00:48:57.472Z,101796.35
2022-08-30T00:51:26.878Z,101793.70
2022-08-30T00:53:57.853Z,101788.15
2022-08-30T00:56:26.793Z,101789.23
2022-08-30T00:58:58.235Z,101790.53
2022-08-30T01:01:27.261Z,101783.41
2022-08-30T01:03:58.214Z,101781.84
2022-08-30T01:06:32.630Z,101789.98
2022-08-30T01:09:01.885Z,101788.34
2022-08-30T01:11:30.433Z,101794.98
2022-08-30T01:13:58.993Z,101790.47
2022-08-30T01:16:27.300Z,101785.73
2022-08-30T01:18:59.210Z,101796.52
2022-08-30T01:21:50.853Z,101790.17
2022-08-30T01:24:20.132Z,101783.08
2022-08-30T01:26:47.864Z,101783.87
2022-08-30T01:29:21.055Z,101782.30
2022-08-30T01:31:48.817Z,101778.86
2022-08-30T01:34:16.528Z,101779.88
2022-08-30T01:36:46.761Z,101782.26
2022-08-30T01:39:17.066Z,101775.13
2022-08-30T01:41:45.355Z,101788.02
2022-08-30T01:44:15.219Z,101787.46
2022-08-30T01:46:47.317Z,101789.84
2022-08-30T01:49:18.951Z,101789.59
2022-08-30T01:52:00.666Z,101786.41
2022-08-30T01:54:33.293Z,101788.51
2022-08-30T01:57:06.800Z,101792.70
2022-08-30T01:59:34.551Z,101793.77
2022-08-30T02:02:02.225Z,101787.95
2022-08-30T02:04:29.948Z,101790.60
2022-08-30T02:06:57.693Z,101796.88
2022-08-30T02:09:25.484Z,101797.40
2022-08-30T02:11:53.146Z,101794.23
2022-08-30T02:14:21.235Z,101789.78
2022-08-30T02:16:49.527Z,101791.09
2022-08-30T02:19:19.090Z,101789.78
2022-08-30T02:21:46.814Z,101791.35
2022-08-30T02:24:14.470Z,101797.14
2022-08-30T02:26:42.376Z,101786.88
2022-08-30T02:29:10.386Z,101795.57
2022-08-30T02:31:38.058Z,101796.06
2022-08-30T02:34:05.752Z,101796.62
2022-08-30T02:36:33.445Z,101792.89
2022-08-30T02:39:01.186Z,101791.58
2022-08-30T02:41:28.884Z,101787.69
2022-08-30T02:43:59.580Z,101796.06
2022-08-30T02:46:33.320Z,101791.09
2022-08-30T02:49:29.944Z,101791.09
2022-08-30T02:51:50.827Z,101787.92
2022-08-30T02:54:21.085Z,101783.70
2022-08-30T02:56:49.994Z,101779.52
2022-08-30T02:59:19.150Z,101773.43
2022-08-30T03:01:46.956Z,101775.30
2022-08-30T03:04:14.719Z,101776.34
2022-08-30T03:06:42.589Z,101779.74
2022-08-30T03:09:10.392Z,101780.23
2022-08-30T03:11:38.698Z,101776.84
2022-08-30T03:14:06.452Z,101772.09
2022-08-30T03:16:34.426Z,101769.97
2022-08-30T03:19:02.160Z,101772.09
2022-08-30T03:21:29.900Z,101770.75
2022-08-30T03:23:57.608Z,101765.98
2022-08-30T03:26:25.325Z,101767.80
2022-08-30T03:28:53.050Z,101760.45
2022-08-30T03:31:20.942Z,101755.97
2022-08-30T03:33:48.729Z,101753.81
2022-08-30T03:36:16.381Z,101753.55
2022-08-30T03:38:44.068Z,101755.16
2022-08-30T03:41:12.462Z,101755.16
2022-08-30T03:43:40.817Z,101756.95
2022-08-30T03:46:10.050Z,101764.34
2022-08-30T03:48:38.017Z,101764.05
2022-08-30T03:51:06.190Z,101754.30
2022-08-30T03:53:34.377Z,101760.09
2022-08-30T03:56:02.050Z,101760.38
2022-08-30T03:58:30.095Z,101757.77
2022-08-30T04:00:57.957Z,101761.98
2022-08-30T04:03:27.078Z,101763.55
2022-08-30T04:05:56.012Z,101771.96
2022-08-30T04:08:23.866Z,101760.09
2022-08-30T04:10:52.168Z,101768.49
2022-08-30T04:13:20.478Z,101770.62
2022-08-30T04:15:48.582Z,101771.90
2022-08-30T04:18:16.840Z,101766.92
2022-08-30T04:20:44.879Z,101778.99
2022-08-30T04:23:13.569Z,101779.81
2022-08-30T04:25:43.065Z,101781.12
2022-08-30T04:28:11.705Z,101776.64
2022-08-30T04:30:41.510Z,101782.95
2022-08-30T04:33:09.583Z,101776.57
2022-08-30T04:35:37.379Z,101777.09
2022-08-30T04:38:05.213Z,101777.32
2022-08-30T04:40:32.983Z,101776.54
2022-08-30T04:43:01.262Z,101773.37
2022-08-30T04:45:29.047Z,101784.91
2022-08-30T04:47:57.293Z,101788.64
2022-08-30T04:50:25.131Z,101797.04
2022-08-30T04:52:52.914Z,101791.52
2022-08-30T04:55:20.804Z,101788.90
2022-08-30T04:57:49.002Z,101791.02
2022-08-30T05:00:17.481Z,101799.95
2022-08-30T05:02:45.397Z,101798.64
2022-08-30T05:05:31.886Z,101802.60
2022-08-30T05:08:00.337Z,101798.41
2022-08-30T05:10:28.667Z,101803.19
2022-08-30T05:12:56.511Z,101811.62
2022-08-30T05:15:24.371Z,101814.80
2022-08-30T05:17:52.154Z,101820.84
2022-08-30T05:20:19.964Z,101821.14
2022-08-30T05:22:53.448Z,101819.84
2022-08-30T05:25:28.519Z,101830.88
2022-08-30T05:27:57.015Z,101826.18
2022-08-30T05:30:25.867Z,101834.84
2022-08-30T05:32:54.062Z,101842.49
2022-08-30T05:35:25.760Z,101837.52
2022-08-30T05:37:54.902Z,101834.13
2022-08-30T05:40:24.457Z,101844.09
2022-08-30T05:42:52.739Z,101837.82
2022-08-30T05:45:20.597Z,101840.50
2022-08-30T05:47:48.942Z,101840.76
2022-08-30T05:50:16.988Z,101856.10
2022-08-30T05:52:46.223Z,101847.92
2022-08-30T05:55:14.112Z,101844.55
2022-08-30T05:57:42.602Z,101848.55
2022-08-30T06:00:15.334Z,101849.59
2022-08-30T06:02:43.863Z,101851.72
2022-08-30T06:05:14.349Z,101848.28
2022-08-30T06:07:42.731Z,101840.40
2022-08-30T06:10:10.722Z,101839.09
2022-08-30T06:12:38.442Z,101833.05
2022-08-30T06:15:06.696Z,101828.34
2022-08-30T06:17:34.401Z,101823.56
2022-08-30T06:20:02.227Z,101831.24
2022-08-30T06:22:30.009Z,101833.37
2022-08-30T06:24:58.322Z,101830.23
2022-08-30T06:27:26.209Z,101827.35
2022-08-30T06:29:54.629Z,101832.12
2022-08-30T06:32:22.399Z,101831.87
2022-08-30T06:34:50.581Z,101824.51
2022-08-30T06:37:29.119Z,101829.80
2022-08-30T06:39:59.128Z,101817.94
2022-08-30T06:42:32.890Z,101832.72
2022-08-30T06:45:10.611Z,101829.32
2022-08-30T06:47:39.526Z,101839.03
2022-08-30T06:50:08.003Z,101833.24
2022-08-30T06:52:43.997Z,101829.84
2022-08-30T06:55:16.606Z,101824.54
2022-08-30T06:57:45.193Z,101828.01
2022-08-30T07:00:15.937Z,101820.62
2022-08-30T07:02:44.077Z,101822.98
2022-08-30T07:05:18.531Z,101820.06
2022-08-30T07:07:46.511Z,101830.10
2022-08-30T07:10:15.431Z,101817.45
2022-08-30T07:12:43.160Z,101816.66
2022-08-30T07:15:11.191Z,101817.97
2022-08-30T07:17:57.527Z,101817.19
2022-08-30T07:20:25.256Z,101804.79
2022-08-30T07:22:52.929Z,101809.80
2022-08-30T07:25:20.674Z,101806.36
2022-08-30T07:27:48.404Z,101800.54
2022-08-30T07:30:16.078Z,101806.33
2022-08-30T07:32:43.750Z,101804.79
2022-08-30T07:35:11.586Z,101811.89
2022-08-30T07:37:39.254Z,101808.20
2022-08-30T07:40:07.341Z,101803.98
2022-08-30T07:42:35.221Z,101800.51
2022-08-30T07:45:04.358Z,101800.51
2022-08-30T07:47:32.688Z,101798.41
2022-08-30T07:50:01.838Z,101803.16
2022-08-30T07:52:30.805Z,101803.65
2022-08-30T07:55:00.023Z,101799.92
2022-08-30T07:57:27.966Z,101803.62
2022-08-30T07:59:55.766Z,101804.34
2022-08-30T08:02:23.697Z,101811.17
2022-08-30T08:04:51.799Z,101803.71
2022-08-30T08:07:19.849Z,101808.42
2022-08-30T08:09:47.529Z,101807.05
2022-08-30T08:12:15.335Z,101790.86
2022-08-30T08:14:43.187Z,101803.98
2022-08-30T08:17:11.144Z,101799.66
2022-08-30T08:19:38.909Z,101804.04
2022-08-30T08:22:20.675Z,101805.02
2022-08-30T08:24:49.763Z,101792.01
2022-08-30T08:27:18.214Z,101798.55
2022-08-30T08:29:45.928Z,101793.67
2022-08-30T08:32:13.641Z,101792.86
2022-08-30T08:34:42.552Z,101797.50
2022-08-30T08:37:10.330Z,101791.91
2022-08-30T08:39:38.174Z,101792.59
2022-08-30T08:42:21.832Z,101787.82
2022-08-30T08:45:10.168Z,101781.94
2022-08-30T08:47:57.636Z,101787.92
2022-08-30T08:50:29.498Z,101797.40
2022-08-30T08:53:45.500Z,101785.89
2022-08-30T08:56:17.914Z,101790.08
2022-08-30T08:58:48.434Z,101788.45
2022-08-30T09:01:21.464Z,101788.64
2022-08-30T09:03:49.698Z,101785.40
2022-08-30T09:06:36.270Z,101772.62
2022-08-30T09:09:04.561Z,101776.51
2022-08-30T09:11:35.097Z,101777.23
2022-08-30T09:14:02.944Z,101776.02
2022-08-30T09:16:48.166Z,101769.57
2022-08-30T09:19:36.487Z,101768.13
2022-08-30T09:22:16.449Z,101771.41
2022-08-30T09:24:48.273Z,101767.88
2022-08-30T09:27:23.777Z,101760.35
2022-08-30T09:29:59.760Z,101763.95
2022-08-30T09:32:32.575Z,101762.87
2022-08-30T09:35:00.572Z,101766.76
2022-08-30T09:37:36.888Z,101757.73
2022-08-30T09:40:13.228Z,101757.41
2022-08-30T09:42:41.367Z,101753.02
2022-08-30T09:45:21.229Z,101753.42
2022-08-30T09:47:49.121Z,101746.68
2022-08-30T09:50:24.778Z,101740.96
2022-08-30T09:53:23.508Z,101740.27
2022-08-30T09:56:04.791Z,101745.24
2022-08-30T09:59:06.976Z,101745.34
2022-08-30T10:01:41.924Z,101746.26
2022-08-30T10:04:35.529Z,101740.54
2022-08-30T10:07:29.108Z,101727.59
2022-08-30T10:10:19.432Z,101734.59
2022-08-30T10:13:04.513Z,101733.90
2022-08-30T10:15:40.977Z,101738.70
2022-08-30T10:18:22.016Z,101727.69
2022-08-30T10:20:58.721Z,101738.90
2022-08-30T10:23:35.179Z,101731.58
2022-08-30T10:26:22.226Z,101730.30
2022-08-30T10:28:56.984Z,101724.91
2022-08-30T10:31:47.226Z,101735.53
2022-08-30T10:34:32.380Z,101727.29
2022-08-30T10:37:22.534Z,101715.88
2022-08-30T10:40:00.268Z,101714.80
2022-08-30T10:42:39.408Z,101716.24
2022-08-30T10:45:14.923Z,101722.55
2022-08-30T10:48:06.474Z,101707.21
2022-08-30T10:50:41.516Z,101706.69
2022-08-30T10:53:10.031Z,101705.16
2022-08-30T10:55:49.945Z,101702.11
2022-08-30T10:58:19.499Z,101706.82
2022-08-30T11:00:51.553Z,101698.26
2022-08-30T11:03:49.955Z,101696.88
2022-08-30T11:06:40.760Z,101704.53
2022-08-30T11:09:44.918Z,101698.65
2022-08-30T11:12:34.859Z,101702.80
2022-08-30T11:15:18.970Z,101703.20
2022-08-30T11:18:06.750Z,101695.05
2022-08-30T11:20:44.755Z,101696.23
2022-08-30T11:23:22.997Z,101693.94
2022-08-30T11:25:57.550Z,101686.12
2022-08-30T11:28:37.960Z,101690.83
2022-08-30T11:31:23.985Z,101692.23
2022-08-30T11:33:54.631Z,101691.26
2022-08-30T11:36:37.825Z,101687.59
2022-08-30T11:39:35.112Z,101674.91
2022-08-30T11:42:29.381Z,101682.76
2022-08-30T11:45:25.026Z,101671.87
2022-08-30T11:47:56.399Z,101673.04
2022-08-30T11:50:56.065Z,101668.76
2022-08-30T11:53:45.808Z,101662.52
2022-08-30T11:56:34.622Z,101665.26
2022-08-30T11:59:07.104Z,101660.98
2022-08-30T12:01:42.206Z,101657.87
2022-08-30T12:04:18.107Z,101654.77
2022-08-30T12:06:54.032Z,101652.60
2022-08-30T12:09:24.688Z,101650.41
2022-08-30T12:12:02.016Z,101648.88
2022-08-30T12:14:49.894Z,101645.73
2022-08-30T12:17:42.885Z,101635.73
2022-08-30T12:20:24.859Z,101632.01
2022-08-30T12:22:54.651Z,101632.56
2022-08-30T12:25:30.162Z,101625.70
2022-08-30T12:28:21.991Z,101614.31
2022-08-30T12:30:51.252Z,101616.30
2022-08-30T12:33:30.322Z,101616.30
2022-08-30T12:36:04.254Z,101624.52
2022-08-30T12:38:32.874Z,101616.30
2022-08-30T12:41:02.665Z,101613.92
2022-08-30T12:43:48.857Z,101607.88
2022-08-30T12:46:19.192Z,101606.11
2022-08-30T12:48:49.358Z,101600.02
2022-08-30T12:51:37.956Z,101603.59
2022-08-30T12:54:15.848Z,101597.70
2022-08-30T12:56:55.281Z,101596.33
2022-08-30T12:59:56.833Z,101594.95
2022-08-30T13:02:48.887Z,101586.32
2022-08-30T13:05:52.867Z,101588.09
2022-08-30T13:08:23.923Z,101586.68
2022-08-30T13:10:52.839Z,101579.26
2022-08-30T13:13:30.021Z,101587.89
2022-08-30T13:15:58.800Z,101581.65
2022-08-30T13:18:33.505Z,101572.03
2022-08-30T13:21:20.069Z,101567.55
2022-08-30T13:23:48.343Z,101563.62
2022-08-30T13:26:23.219Z,101565.20
2022-08-30T13:28:58.119Z,101568.73
2022-08-30T13:31:28.324Z,101567.20
2022-08-30T13:33:59.297Z,101565.00
2022-08-30T13:36:31.770Z,101560.09
2022-08-30T13:39:01.902Z,101562.26
2022-08-30T13:41:34.452Z,101553.66
2022-08-30T13:44:11.314Z,101553.23
2022-08-30T13:46:43.087Z,101550.68
2022-08-30T13:52:20.525Z,101534.75
2022-08-30T13:54:52.679Z,101532.37
2022-08-30T14:00:18.386Z,101537.44
2022-08-30T14:02:53.857Z,101529.59
2022-08-30T14:06:09.860Z,101525.83
2022-08-30T14:11:00.087Z,101520.76
2022-08-30T14:13:30.128Z,101522.10
2022-08-30T14:18:49.040Z,101515.46
2022-08-30T14:21:17.113Z,101523.31
2022-08-30T14:23:49.634Z,101517.26
2022-08-30T14:26:27.904Z,101505.32
2022-08-30T14:29:00.803Z,101511.60
2022-08-30T14:31:28.658Z,101515.56
2022-08-30T14:33:56.630Z,101510.88
2022-08-30T14:36:24.371Z,101507.16
2022-08-30T14:38:52.367Z,101513.63
2022-08-30T14:41:20.229Z,101511.27
2022-08-30T14:43:47.945Z,101512.48
2022-08-30T14:46:15.756Z,101511.51
2022-08-30T14:48:44.122Z,101517.75
2022-08-30T14:51:20.527Z,101506.44
2022-08-30T14:53:48.689Z,101506.83
2022-08-30T14:56:19.617Z,101506.66
2022-08-30T14:58:52.729Z,101508.79
2022-08-30T15:01:21.201Z,101503.52
2022-08-30T15:03:49.068Z,101499.21
2022-08-30T15:06:19.101Z,101486.69
2022-08-30T15:08:48.450Z,101480.24
2022-08-30T15:11:19.846Z,101484.72
2022-08-30T15:13:48.253Z,101481.16
2022-08-30T15:16:25.444Z,101480.60
2022-08-30T15:18:54.353Z,101485.87
2022-08-30T15:21:49.789Z,101479.39
2022-08-30T15:24:24.766Z,101485.45
2022-08-30T15:26:58.094Z,101471.55
2022-08-30T15:29:30.417Z,101463.56
2022-08-30T15:32:00.096Z,101459.25
2022-08-30T15:34:28.634Z,101461.18
2022-08-30T15:36:57.233Z,101461.77
2022-08-30T15:39:25.017Z,101458.30
2022-08-30T15:41:57.287Z,101461.02
2022-08-30T15:44:27.659Z,101454.61
2022-08-30T15:46:55.542Z,101455.81
2022-08-30T15:49:24.648Z,101452.48
2022-08-30T15:51:53.985Z,101455.23
2022-08-30T15:54:24.248Z,101439.59
2022-08-30T15:57:00.144Z,101443.13
2022-08-30T15:59:30.693Z,101437.27
2022-08-30T16:01:59.496Z,101438.65
2022-08-30T16:04:27.550Z,101441.76
2022-08-30T16:06:55.468Z,101443.91
2022-08-30T16:09:23.965Z,101441.95
2022-08-30T16:11:51.818Z,101440.97
2022-08-30T16:14:19.756Z,101435.09
2022-08-30T16:16:47.591Z,101438.65
2022-08-30T16:19:15.667Z,101447.45
2022-08-30T16:21:44.829Z,101447.45
2022-08-30T16:24:14.262Z,101445.68
2022-08-30T16:26:43.515Z,101446.30
2022-08-30T16:29:13.495Z,101437.27
2022-08-30T16:31:44.765Z,101436.13
2022-08-30T16:34:14.425Z,101440.25
2022-08-30T16:36:42.182Z,101430.27
2022-08-30T16:39:11.171Z,101432.24
2022-08-30T16:41:40.025Z,101431.29
2022-08-30T16:44:08.461Z,101436.20
2022-08-30T16:46:37.250Z,101441.88
2022-08-30T16:49:06.826Z,101440.91
2022-08-30T16:51:37.433Z,101440.12
2022-08-30T16:54:08.279Z,101464.19
2022-08-30T16:56:37.827Z,101449.34
2022-08-30T16:59:11.146Z,101456.57
2022-08-30T17:01:39.923Z,101455.39
2022-08-30T17:04:09.242Z,101452.88
2022-08-30T17:06:38.000Z,101450.13
2022-08-30T17:09:07.701Z,101450.35
2022-08-30T17:11:40.314Z,101451.30
2022-08-30T17:14:08.770Z,101453.69
2022-08-30T17:16:38.356Z,101454.48
2022-08-30T17:19:08.321Z,101444.34
2022-08-30T17:21:36.157Z,101453.73
2022-08-30T17:24:06.802Z,101458.40
2022-08-30T17:26:37.634Z,101466.61
2022-08-30T17:31:54.789Z,101470.50
2022-08-30T17:34:23.757Z,101476.35
2022-08-30T17:36:56.023Z,101473.60
2022-08-30T17:39:24.610Z,101475.96
2022-08-30T17:41:52.739Z,101476.32
2022-08-30T17:44:25.928Z,101485.31
2022-08-30T17:46:54.429Z,101491.52
2022-08-30T17:49:22.937Z,101498.75
2022-08-30T17:51:56.352Z,101501.07
2022-08-30T17:54:25.909Z,101513.76
2022-08-30T17:56:54.505Z,101511.77
2022-08-30T17:59:25.061Z,101513.07
2022-08-30T18:01:54.610Z,101511.70
2022-08-30T18:04:24.762Z,101514.58
2022-08-30T18:06:53.238Z,101519.02
2022-08-30T18:09:21.822Z,101532.07
2022-08-30T18:11:50.373Z,101526.19
2022-08-30T18:14:18.432Z,101532.20
2022-08-30T18:16:49.937Z,101540.31
2022-08-30T18:19:22.231Z,101539.49
2022-08-30T18:21:50.025Z,101546.30
2022-08-30T18:24:18.143Z,101536.65
2022-08-30T18:26:46.133Z,101544.20
2022-08-30T18:29:13.935Z,101539.30
2022-08-30T18:31:42.021Z,101532.83
2022-08-30T18:34:12.369Z,101537.66
2022-08-30T18:36:41.373Z,101537.04
2022-08-30T18:39:09.466Z,101538.74
2022-08-30T18:41:43.231Z,101546.10
2022-08-30T18:44:27.409Z,101541.16
2022-08-30T18:49:44.418Z,101548.29
2022-08-30T18:52:12.332Z,101551.56
2022-08-30T18:54:42.645Z,101542.96
2022-08-30T18:57:10.832Z,101548.59
2022-08-30T18:59:42.020Z,101557.71
2022-08-30T19:02:17.523Z,101559.41
2022-08-30T19:04:46.504Z,101564.80
2022-08-30T19:07:17.745Z,101564.94
2022-08-30T19:09:46.439Z,101564.48
2022-08-30T19:12:14.782Z,101569.28
2022-08-30T19:14:44.218Z,101560.13
2022-08-30T19:17:12.119Z,101567.65
2022-08-30T19:19:48.315Z,101573.83
2022-08-30T19:22:17.220Z,101573.63
2022-08-30T19:24:46.642Z,101577.69
2022-08-30T19:27:14.351Z,101581.16
2022-08-30T19:29:42.088Z,101585.21
2022-08-30T19:32:12.328Z,101585.54
2022-08-30T19:34:40.978Z,101583.77
2022-08-30T19:37:09.102Z,101587.01
2022-08-30T19:39:42.683Z,101586.59
2022-08-30T19:42:10.544Z,101585.57
2022-08-30T19:44:38.829Z,101580.63
2022-08-30T19:47:07.500Z,101581.98
2022-08-30T19:49:36.875Z,101580.20
2022-08-30T19:52:04.964Z,101572.55
2022-08-30T19:54:32.685Z,101575.23
2022-08-30T19:57:00.787Z,101577.72
2022-08-30T19:59:28.598Z,101584.69
2022-08-30T20:01:57.899Z,101583.45
2022-08-30T20:04:26.741Z,101586.39
2022-08-30T20:06:54.674Z,101584.52
2022-08-30T20:09:23.462Z,101581.98
2022-08-30T20:11:52.575Z,101586.32
2022-08-30T20:14:23.186Z,101603.95
2022-08-30T20:16:52.495Z,101626.84
2022-08-30T20:19:21.882Z,101623.21
2022-08-30T20:21:55.456Z,101630.96
2022-08-30T20:24:24.964Z,101460.72
2022-08-30T20:24:29.517Z,101548.72
2022-08-30T20:24:32.087Z,101628.15
2022-08-30T20:27:00.049Z,101632.73
2022-08-30T20:29:27.761Z,101640.15
2022-08-30T20:31:55.427Z,101645.18
2022-08-30T20:34:28.372Z,101642.27
2022-08-30T20:36:57.609Z,101650.45
2022-08-30T20:39:26.682Z,101645.97
2022-08-30T20:41:54.596Z,101654.17
2022-08-30T20:44:22.367Z,101662.35
2022-08-30T20:46:51.815Z,101660.78
2022-08-30T20:49:20.704Z,101664.25
2022-08-30T20:51:52.950Z,101661.11
2022-08-30T20:54:22.383Z,101668.30
2022-08-30T20:56:51.149Z,101664.31
2022-08-30T20:59:18.959Z,101669.22
2022-08-30T21:01:48.782Z,101679.88
2022-08-30T21:04:17.853Z,101667.98
2022-08-30T21:06:45.647Z,101678.41
2022-08-30T21:09:13.592Z,101680.86
2022-08-30T21:11:42.243Z,101684.00
2022-08-30T21:14:12.386Z,101675.37
2022-08-30T21:16:40.460Z,101680.63
2022-08-30T21:19:08.360Z,101680.95
2022-08-30T21:21:36.107Z,101676.94
2022-08-30T21:24:11.051Z,101680.50
2022-08-30T21:26:40.993Z,101681.74
2022-08-30T21:29:09.744Z,101681.28
2022-08-30T21:31:40.684Z,101678.60
2022-08-30T21:34:08.850Z,101677.03
2022-08-30T21:36:48.054Z,101692.50
2022-08-30T21:39:20.885Z,101700.84
2022-08-30T21:41:50.306Z,101701.27
2022-08-30T21:44:22.547Z,101698.42
2022-08-30T21:46:53.282Z,101713.23
2022-08-30T21:49:23.465Z,101706.73
2022-08-30T21:51:53.742Z,101704.11
2022-08-30T21:54:22.539Z,101708.88
2022-08-30T21:56:51.899Z,101700.80
2022-08-30T21:59:20.706Z,101707.15
2022-08-30T22:01:49.702Z,101701.95
2022-08-30T22:04:17.725Z,101714.64
2022-08-30T22:06:51.233Z,101704.40
2022-08-30T22:09:22.488Z,101710.23
2022-08-30T22:11:50.897Z,101709.57
2022-08-30T22:14:21.214Z,101709.73
2022-08-30T22:16:49.885Z,101710.48
2022-08-30T22:19:22.891Z,101706.69
2022-08-30T22:21:51.569Z,101712.74
2022-08-30T22:24:19.539Z,101710.16
2022-08-30T22:26:47.810Z,101715.81
2022-08-30T22:29:16.370Z,101701.33
2022-08-30T22:31:44.434Z,101704.17
2022-08-30T22:34:12.499Z,101711.56
2022-08-30T22:36:40.352Z,101714.48
2022-08-30T22:39:09.927Z,101709.08
2022-08-30T22:41:38.947Z,101704.92
2022-08-30T22:44:07.503Z,101701.85
2022-08-30T22:46:36.900Z,101707.15
2022-08-30T22:49:09.901Z,101706.13
2022-08-30T22:51:38.468Z,101691.32
2022-08-30T22:54:07.878Z,101700.31
2022-08-30T22:56:37.863Z,101702.73
2022-08-30T22:59:06.469Z,101701.95
2022-08-30T23:01:38.030Z,101682.43
2022-08-30T23:04:08.228Z,101677.69
2022-08-30T23:06:36.010Z,101675.13
2022-08-30T23:09:04.661Z,101679.62
2022-08-30T23:11:33.320Z,101683.08
2022-08-30T23:14:02.169Z,101687.63
2022-08-30T23:16:30.488Z,101689.72
2022-08-30T23:18:58.237Z,101681.52
2022-08-30T23:21:29.918Z,101685.77
2022-08-30T23:24:17.398Z,101685.30
2022-08-30T23:27:04.963Z,101695.12
2022-08-30T23:29:52.397Z,101700.67
2022-08-30T23:32:39.201Z,101696.45
2022-08-30T23:35:29.201Z,101691.71
2022-08-30T23:38:17.248Z,101688.51
2022-08-30T23:41:03.874Z,101690.63
2022-08-30T23:43:50.267Z,101685.73
2022-08-30T23:46:37.209Z,101682.10
2022-08-30T23:49:24.282Z,101686.05
2022-08-30T23:52:10.444Z,101677.16
2022-08-30T23:54:57.431Z,101674.05
2022-08-30T23:57:45.115Z,101671.21
